createdAt,value
2023-01-13T00:02:49.207Z,11.00
2023-01-13T00:07:50.958Z,10.80
2023-01-13T00:12:53.555Z,10.80
2023-01-13T00:17:55.286Z,10.70
2023-01-13T00:22:58.803Z,10.70
2023-01-13T00:28:00.647Z,10.70
2023-01-13T00:33:02.340Z,10.80
2023-01-13T00:38:04.087Z,10.80
2023-01-13T00:43:23.807Z,10.80
2023-01-13T00:48:28.331Z,10.90
2023-01-13T00:53:34.035Z,10.90
2023-01-13T00:58:36.359Z,10.90
2023-01-13T01:03:38.154Z,10.90
2023-01-13T01:08:40.857Z,10.90
2023-01-13T01:13:43.297Z,10.90
2023-01-13T01:18:47.749Z,10.90
2023-01-13T01:23:51.564Z,10.90
2023-01-13T01:28:54.100Z,10.90
2023-01-13T01:33:55.941Z,11.00
2023-01-13T01:38:58.921Z,11.00
2023-01-13T01:44:38.217Z,11.00
2023-01-13T01:49:41.259Z,11.00
2023-01-13T01:54:54.197Z,11.00
2023-01-13T01:59:57.584Z,11.00
2023-01-13T02:04:59.866Z,11.00
2023-01-13T02:10:05.616Z,11.00
2023-01-13T02:15:09.480Z,11.10
2023-01-13T02:20:21.898Z,11.00
2023-01-13T02:26:00.076Z,11.10
2023-01-13T02:31:27.451Z,11.10
2023-01-13T02:36:53.266Z,11.10
2023-01-13T02:42:32.021Z,11.10
2023-01-13T02:47:37.750Z,11.10
2023-01-13T02:53:02.573Z,11.10
2023-01-13T02:58:08.111Z,11.10
2023-01-13T03:03:09.943Z,11.10
2023-01-13T03:08:26.521Z,11.20
2023-01-13T03:14:06.243Z,11.10
2023-01-13T03:19:30.837Z,11.00
2023-01-13T03:24:42.961Z,11.00
2023-01-13T03:29:53.521Z,11.10
2023-01-13T03:35:11.870Z,11.10
2023-01-13T03:40:18.767Z,11.00
2023-01-13T03:45:20.862Z,11.00
2023-01-13T03:50:30.888Z,11.00
2023-01-13T03:55:37.856Z,11.00
2023-01-13T04:00:49.257Z,11.10
2023-01-13T04:05:58.534Z,11.10
2023-01-13T04:11:30.024Z,11.10
2023-01-13T04:16:32.939Z,11.00
2023-01-13T04:21:35.733Z,11.00
2023-01-13T04:26:37.447Z,11.00
2023-01-13T04:31:39.195Z,11.00
2023-01-13T04:36:41.020Z,11.00
2023-01-13T04:41:57.702Z,11.00
2023-01-13T04:46:59.450Z,11.00
2023-01-13T04:52:03.708Z,11.00
2023-01-13T04:57:05.398Z,11.00
2023-01-13T05:02:09.004Z,11.00
2023-01-13T05:07:10.729Z,11.10
2023-01-13T05:12:31.333Z,11.00
2023-01-13T05:17:33.332Z,11.00
2023-01-13T05:22:53.585Z,11.00
2023-01-13T05:27:59.935Z,11.00
2023-01-13T05:33:01.720Z,11.00
2023-01-13T05:38:03.396Z,11.00
2023-01-13T05:43:22.845Z,11.00
2023-01-13T05:48:29.510Z,11.00
2023-01-13T05:53:31.924Z,11.00
2023-01-13T05:58:34.176Z,11.00
2023-01-13T06:03:36.770Z,11.00
2023-01-13T06:08:39.854Z,11.00
2023-01-13T06:13:41.819Z,11.10
2023-01-13T06:18:43.497Z,11.10
2023-01-13T06:23:45.146Z,11.10
2023-01-13T06:28:46.832Z,11.10
2023-01-13T06:34:00.887Z,11.10
2023-01-13T06:39:04.117Z,11.00
2023-01-13T06:44:06.157Z,11.00
2023-01-13T06:49:07.902Z,11.00
2023-01-13T06:54:09.640Z,11.00
2023-01-13T06:59:12.699Z,10.30
2023-01-13T07:04:14.636Z,9.60
2023-01-13T07:09:16.460Z,9.50
2023-01-13T07:14:37.658Z,9.30
2023-01-13T07:19:39.359Z,9.20
2023-01-13T07:24:41.057Z,9.10
2023-01-13T07:29:43.831Z,9.20
2023-01-13T07:34:45.486Z,9.20
2023-01-13T07:39:47.661Z,9.20
2023-01-13T07:44:49.369Z,9.20
2023-01-13T07:49:51.420Z,9.20
2023-01-13T07:54:53.347Z,9.20
2023-01-13T07:59:55.411Z,9.20
2023-01-13T08:04:57.849Z,9.30
2023-01-13T08:09:59.842Z,9.20
2023-01-13T08:15:01.634Z,9.30
2023-01-13T08:20:05.452Z,9.30
2023-01-13T08:25:09.846Z,9.30
2023-01-13T08:30:13.070Z,9.40
2023-01-13T08:35:16.246Z,9.40
2023-01-13T08:40:19.120Z,9.40
2023-01-13T08:45:20.868Z,9.40
2023-01-13T08:50:24.085Z,9.30
2023-01-13T08:55:25.793Z,9.30
2023-01-13T09:00:27.542Z,9.40
2023-01-13T09:05:29.375Z,9.30
2023-01-13T09:10:31.845Z,9.30
2023-01-13T09:15:33.643Z,9.50
2023-01-13T09:20:35.357Z,9.50
2023-01-13T09:25:37.166Z,9.70
2023-01-13T09:30:38.945Z,9.90
2023-01-13T09:35:40.661Z,9.80
2023-01-13T09:40:43.752Z,9.60
2023-01-13T09:45:55.939Z,9.60
2023-01-13T09:51:24.369Z,9.60
2023-01-13T09:56:26.566Z,9.60
2023-01-13T10:01:31.828Z,9.60
2023-01-13T10:06:42.316Z,9.60
2023-01-13T10:12:05.737Z,9.60
2023-01-13T10:17:18.791Z,9.80
2023-01-13T10:22:49.180Z,9.60
2023-01-13T10:27:54.045Z,9.30
2023-01-13T10:32:58.856Z,9.20
2023-01-13T10:38:00.609Z,9.30
2023-01-13T10:43:08.143Z,9.30
2023-01-13T10:48:14.842Z,9.30
2023-01-13T10:53:25.184Z,9.40
2023-01-13T10:58:27.792Z,9.30
2023-01-13T11:03:43.445Z,9.30
2023-01-13T11:08:47.638Z,9.40
2023-01-13T11:14:10.490Z,9.40
2023-01-13T11:19:18.281Z,9.30
2023-01-13T11:24:29.759Z,9.40
2023-01-13T11:29:55.739Z,9.40
2023-01-13T11:35:03.441Z,9.40
2023-01-13T11:40:34.338Z,9.50
2023-01-13T11:45:57.477Z,9.70
2023-01-13T11:51:14.344Z,9.80
2023-01-13T11:56:40.722Z,9.80
2023-01-13T12:01:46.130Z,9.90
2023-01-13T12:07:07.507Z,10.10
2023-01-13T12:12:43.265Z,10.30
2023-01-13T12:18:06.853Z,10.50
2023-01-13T12:23:25.309Z,10.60
2023-01-13T12:28:40.015Z,10.70
2023-01-13T12:33:49.692Z,10.80
2023-01-13T12:39:27.871Z,10.70
2023-01-13T12:44:29.680Z,10.70
2023-01-13T12:49:33.828Z,10.70
2023-01-13T12:54:41.336Z,10.90
2023-01-13T13:00:06.607Z,10.90
2023-01-13T13:05:14.270Z,10.60
2023-01-13T13:10:42.649Z,10.50
2023-01-13T13:15:49.534Z,10.60
2023-01-13T13:20:58.821Z,10.90
2023-01-13T13:26:16.637Z,11.10
2023-01-13T13:31:29.625Z,11.20
2023-01-13T13:36:49.773Z,11.10
2023-01-13T13:42:16.005Z,10.60
2023-01-13T13:47:18.585Z,10.60
2023-01-13T13:52:36.021Z,10.60
2023-01-13T13:57:42.286Z,10.40
2023-01-13T14:02:57.039Z,10.30
2023-01-13T14:08:19.021Z,10.40
2023-01-13T14:13:25.163Z,10.40
2023-01-13T14:18:29.291Z,10.40
2023-01-13T14:23:33.005Z,10.40
2023-01-13T14:28:38.397Z,10.20
2023-01-13T14:33:46.782Z,10.20
2023-01-13T14:39:11.378Z,10.20
2023-01-13T14:44:24.883Z,10.10
2023-01-13T14:49:31.899Z,9.90
2023-01-13T14:54:50.673Z,9.70
2023-01-13T14:59:57.460Z,9.50
2023-01-13T15:05:20.682Z,9.40
2023-01-13T15:10:34.715Z,9.30
2023-01-13T15:15:39.330Z,9.10
2023-01-13T15:20:42.175Z,9.00
2023-01-13T15:25:45.108Z,8.90
2023-01-13T15:30:48.063Z,8.90
2023-01-13T15:35:52.031Z,8.70
2023-01-13T15:40:54.171Z,8.70
2023-01-13T15:46:14.618Z,8.60
2023-01-13T15:51:16.324Z,8.60
2023-01-13T15:56:29.074Z,8.70
2023-01-13T16:01:31.564Z,8.70
2023-01-13T16:06:34.500Z,8.80
2023-01-13T16:11:36.199Z,8.80
2023-01-13T16:16:38.456Z,8.90
2023-01-13T16:21:40.484Z,9.00
2023-01-13T16:26:42.224Z,9.10
2023-01-13T16:31:44.655Z,9.20
2023-01-13T16:36:46.416Z,9.20
2023-01-13T16:41:48.691Z,9.10
2023-01-13T16:46:50.425Z,9.20
2023-01-13T16:51:53.564Z,9.10
2023-01-13T16:56:55.359Z,9.20
2023-01-13T17:01:57.089Z,9.20
2023-01-13T17:07:03.330Z,9.20
2023-01-13T17:12:05.245Z,9.20
2023-01-13T17:17:13.709Z,9.30
2023-01-13T17:22:15.555Z,9.30
2023-01-13T17:27:21.832Z,9.30
2023-01-13T17:32:24.196Z,9.40
2023-01-13T17:37:25.915Z,9.30
2023-01-13T17:42:31.515Z,9.40
2023-01-13T17:47:33.623Z,9.40
2023-01-13T17:52:35.342Z,9.30
2023-01-13T17:57:38.426Z,9.20
2023-01-13T18:02:40.187Z,9.30
2023-01-13T18:07:41.931Z,9.20
2023-01-13T18:12:43.747Z,9.10
2023-01-13T18:17:47.253Z,9.00
2023-01-13T18:23:07.811Z,9.10
2023-01-13T18:28:09.518Z,9.10
2023-01-13T18:33:13.245Z,9.10
2023-01-13T18:38:20.886Z,9.00
2023-01-13T18:43:22.600Z,8.90
2023-01-13T18:48:25.136Z,8.90
2023-01-13T18:53:26.853Z,8.70
2023-01-13T18:58:30.167Z,8.80
2023-01-13T19:03:31.896Z,8.70
2023-01-13T19:08:33.916Z,8.60
2023-01-13T19:13:36.692Z,8.50
2023-01-13T19:18:38.696Z,8.50
2023-01-13T19:23:40.846Z,8.60
2023-01-13T19:28:44.704Z,8.60
2023-01-13T19:33:46.614Z,8.60
2023-01-13T19:38:48.746Z,8.60
2023-01-13T19:44:09.277Z,8.60
2023-01-13T19:49:11.371Z,8.70
2023-01-13T19:54:13.034Z,8.80
2023-01-13T19:59:18.963Z,8.80
2023-01-13T20:04:27.067Z,8.80
2023-01-13T20:09:30.876Z,9.00
2023-01-13T20:14:32.522Z,8.90
2023-01-13T20:19:34.509Z,8.90
2023-01-13T20:24:36.306Z,8.80
2023-01-13T20:29:38.111Z,8.80
2023-01-13T20:34:39.811Z,8.80
2023-01-13T20:39:45.546Z,8.80
2023-01-13T20:44:47.291Z,8.80
2023-01-13T20:49:49.060Z,8.90
2023-01-13T20:54:51.668Z,8.80
2023-01-13T20:59:53.366Z,8.80
2023-01-13T21:04:55.092Z,8.60
2023-01-13T21:09:57.732Z,8.50
2023-01-13T21:15:17.822Z,8.50
2023-01-13T21:20:19.910Z,8.40
2023-01-13T21:25:21.678Z,8.30
2023-01-13T21:30:26.138Z,8.20
2023-01-13T21:35:27.968Z,8.10
2023-01-13T21:40:29.748Z,8.00
2023-01-13T21:45:49.997Z,7.90
2023-01-13T21:50:52.268Z,7.70
2023-01-13T21:55:53.929Z,7.70
2023-01-13T22:01:02.928Z,7.70
2023-01-13T22:06:06.444Z,7.70
2023-01-13T22:11:08.662Z,7.70
2023-01-13T22:16:11.676Z,7.70
2023-01-13T22:21:13.404Z,7.60
2023-01-13T22:26:15.398Z,7.70
2023-01-13T22:31:21.073Z,7.60
2023-01-13T22:36:26.761Z,7.70
2023-01-13T22:41:28.843Z,7.50
2023-01-13T22:46:30.651Z,7.50
2023-01-13T22:51:32.561Z,7.40
2023-01-13T22:56:34.903Z,7.40
2023-01-13T23:01:37.703Z,7.40
2023-01-13T23:06:41.141Z,7.30
2023-01-13T23:11:42.911Z,7.30
2023-01-13T23:16:46.909Z,7.30
2023-01-13T23:21:48.761Z,7.30
2023-01-13T23:26:50.691Z,7.20
2023-01-13T23:31:52.371Z,7.10
2023-01-13T23:36:54.102Z,7.20
2023-01-13T23:41:55.894Z,7.10
2023-01-13T23:46:57.635Z,7.10
2023-01-13T23:51:59.376Z,7.10
2023-01-13T23:57:01.572Z,7.00
